Time;durP1;ratioP1;P1;durP2;ratioP2;P2;SDS_P1;SDS_P2;PMS_P1;PMS_P2;Temp;Humidity;BMP_temperature;BMP_pressure;BME280_temperature;BME280_humidity;BME280_pressure;Samples;Min_cycle;Max_cycle;Signal;HPM_P1;HPM_P2
2021/10/26 00:00:51;;;;;;;37.25;23.63;;;11.50;99.90;;;;;;5013778;28;20022;-81
2021/10/26 00:03:16;;;;;;;39.17;23.58;;;11.50;99.90;;;;;;5014241;28;20104;-80
2021/10/26 00:05:42;;;;;;;38.33;23.48;;;11.60;99.90;;;;;;5014207;28;20029;-81
2021/10/26 00:08:08;;;;;;;46.00;23.48;;;11.60;99.90;;;;;;5014186;28;20030;-82
2021/10/26 00:10:33;;;;;;;42.50;24.17;;;11.60;99.90;;;;;;5013925;28;20390;-80
2021/10/26 00:12:59;;;;;;;38.10;23.33;;;11.60;99.90;;;;;;5014558;28;20030;-80
2021/10/26 00:15:25;;;;;;;42.58;23.20;;;11.60;99.90;;;;;;5013035;28;20466;-81
2021/10/26 00:17:50;;;;;;;41.63;24.00;;;11.60;99.90;;;;;;5013932;28;20467;-79
2021/10/26 00:20:16;;;;;;;47.65;22.88;;;11.60;99.90;;;;;;5017729;28;20048;-81
2021/10/26 00:22:41;;;;;;;40.38;23.02;;;11.70;99.90;;;;;;5013956;28;20022;-82
2021/10/26 00:25:07;;;;;;;39.28;23.05;;;11.70;99.90;;;;;;5014583;28;20029;-80
2021/10/26 00:27:33;;;;;;;50.28;25.08;;;11.70;99.90;;;;;;5014758;28;20041;-80
2021/10/26 00:30:05;;;;;;;36.05;22.50;;;11.70;99.90;;;;;;5013969;28;20096;-81
2021/10/26 00:32:30;;;;;;;36.92;22.73;;;11.80;99.90;;;;;;5019164;28;20042;-80
2021/10/26 00:34:56;;;;;;;36.58;22.45;;;11.80;99.90;;;;;;5014145;28;20080;-80
2021/10/26 00:37:22;;;;;;;35.47;22.02;;;11.80;99.90;;;;;;5013098;28;20025;-81
2021/10/26 00:39:47;;;;;;;41.30;21.67;;;11.80;99.90;;;;;;5013629;28;20447;-82
2021/10/26 00:42:13;;;;;;;40.10;22.17;;;11.70;99.90;;;;;;5012799;28;20029;-80
2021/10/26 00:44:39;;;;;;;39.80;22.08;;;11.80;99.90;;;;;;5013168;28;20022;-81
2021/10/26 00:47:05;;;;;;;37.42;22.40;;;11.80;99.90;;;;;;5013393;28;20061;-81
2021/10/26 00:49:30;;;;;;;38.25;22.42;;;11.80;99.90;;;;;;5015184;28;20057;-82
2021/10/26 00:51:56;;;;;;;44.05;24.38;;;11.80;99.90;;;;;;5015208;28;20168;-80
2021/10/26 00:54:26;;;;;;;45.92;23.15;;;11.80;99.90;;;;;;5013129;28;20018;-81
2021/10/26 00:56:52;;;;;;;37.22;23.80;;;11.80;99.90;;;;;;5012710;28;20030;-81
2021/10/26 00:59:18;;;;;;;38.92;22.90;;;11.90;99.90;;;;;;5013280;28;20120;-79
2021/10/26 01:01:44;;;;;;;46.00;23.25;;;11.80;99.90;;;;;;5012879;28;20184;-81
2021/10/26 01:04:10;;;;;;;43.13;24.00;;;11.90;99.90;;;;;;5015108;28;20032;-81
2021/10/26 01:06:36;;;;;;;42.72;24.27;;;11.80;99.90;;;;;;5014411;28;20030;-81
2021/10/26 01:09:03;;;;;;;47.50;25.10;;;11.90;99.90;;;;;;5013950;28;20037;-81
2021/10/26 01:11:30;;;;;;;46.15;25.20;;;11.90;99.90;;;;;;5012437;28;20092;-81
2021/10/26 01:13:56;;;;;;;47.55;25.15;;;11.80;99.90;;;;;;5013698;28;20045;-81
2021/10/26 01:16:22;;;;;;;51.00;25.00;;;11.80;99.90;;;;;;5013411;28;20109;-82
2021/10/26 01:18:48;;;;;;;40.97;24.48;;;11.80;99.90;;;;;;5012290;28;20112;-81
2021/10/26 01:21:14;;;;;;;39.10;24.98;;;11.70;99.90;;;;;;5012853;28;20058;-80
2021/10/26 01:23:39;;;;;;;43.83;24.23;;;11.70;99.90;;;;;;5012887;28;20021;-81
2021/10/26 01:26:05;;;;;;;41.55;24.42;;;11.60;99.90;;;;;;5012176;28;20025;-81
2021/10/26 01:28:30;;;;;;;44.40;24.25;;;11.50;99.90;;;;;;5012627;28;20024;-81
2021/10/26 01:30:56;;;;;;;46.15;23.45;;;11.50;99.90;;;;;;5012586;28;20032;-82
2021/10/26 01:33:23;;;;;;;42.17;22.92;;;11.40;99.90;;;;;;5010901;28;20065;-82
2021/10/26 01:35:55;;;;;;;35.90;23.23;;;11.30;99.90;;;;;;5011526;28;20446;-82
2021/10/26 01:38:25;;;;;;;38.80;21.65;;;11.30;99.90;;;;;;5011217;28;20026;-82
2021/10/26 01:40:52;;;;;;;39.20;22.17;;;11.20;99.90;;;;;;5012049;28;20018;-80
2021/10/26 01:43:18;;;;;;;39.58;21.88;;;11.10;99.90;;;;;;5012188;28;20108;-81
2021/10/26 01:45:44;;;;;;;42.35;21.23;;;11.10;99.90;;;;;;5010973;28;20026;-81
2021/10/26 01:48:09;;;;;;;36.00;21.38;;;11.10;99.90;;;;;;5011733;28;20037;-81
2021/10/26 01:50:35;;;;;;;43.42;21.38;;;11.00;99.90;;;;;;5014495;28;20029;-80
2021/10/26 01:53:01;;;;;;;32.60;20.33;;;11.00;99.90;;;;;;5014698;28;20087;-79
2021/10/26 01:55:26;;;;;;;31.10;19.00;;;10.90;99.90;;;;;;5015134;28;20088;-80
2021/10/26 01:57:52;;;;;;;34.22;21.02;;;11.00;99.90;;;;;;5015591;28;20037;-80
2021/10/26 02:00:21;;;;;;;33.35;20.80;;;10.90;99.90;;;;;;5014529;28;20389;-80
2021/10/26 02:02:50;;;;;;;31.23;20.38;;;10.80;99.90;;;;;;5015468;28;20382;-80
2021/10/26 02:05:17;;;;;;;42.08;22.27;;;10.80;99.90;;;;;;5015299;28;20032;-80
2021/10/26 02:07:44;;;;;;;41.60;22.27;;;10.80;99.90;;;;;;5014788;28;20548;-81
2021/10/26 02:10:12;;;;;;;42.78;23.15;;;10.70;99.90;;;;;;5015215;28;20042;-81
2021/10/26 02:12:39;;;;;;;43.97;24.23;;;10.70;99.90;;;;;;5014890;28;20486;-81
2021/10/26 02:15:05;;;;;;;36.80;22.92;;;10.70;99.90;;;;;;5014752;28;20034;-81
2021/10/26 02:17:31;;;;;;;35.15;22.30;;;10.60;99.90;;;;;;5015182;28;20036;-81
2021/10/26 02:19:56;;;;;;;39.25;23.88;;;10.60;99.90;;;;;;5015082;28;20018;-80
2021/10/26 02:22:22;;;;;;;41.90;23.80;;;10.60;99.90;;;;;;5014300;28;20030;-80
2021/10/26 02:24:49;;;;;;;40.53;23.88;;;10.50;99.90;;;;;;5014740;28;20494;-81
2021/10/26 02:27:14;;;;;;;41.47;24.90;;;10.50;99.90;;;;;;5015055;28;20042;-82
2021/10/26 02:29:40;;;;;;;37.42;23.75;;;10.40;99.90;;;;;;5016305;28;20079;-82
2021/10/26 02:32:06;;;;;;;45.17;26.30;;;10.40;99.90;;;;;;4999082;28;1031116;-82
2021/10/26 02:34:32;;;;;;;42.90;27.42;;;10.30;99.90;;;;;;5035409;28;20036;-81
2021/10/26 02:36:58;;;;;;;45.45;26.23;;;10.30;99.90;;;;;;5035878;28;20034;-82
2021/10/26 02:39:23;;;;;;;51.92;28.48;;;10.30;99.90;;;;;;5035697;28;20429;-80
2021/10/26 02:41:49;;;;;;;66.13;30.08;;;10.30;99.90;;;;;;5039494;28;20049;-80
2021/10/26 02:44:15;;;;;;;58.63;28.90;;;10.30;99.90;;;;;;5035472;28;20025;-80
2021/10/26 02:46:40;;;;;;;57.20;29.95;;;10.30;99.90;;;;;;5035080;28;20049;-82
2021/10/26 02:49:06;;;;;;;61.85;28.63;;;10.30;99.90;;;;;;5036409;28;20025;-81
2021/10/26 02:51:32;;;;;;;55.95;29.13;;;10.30;99.90;;;;;;5035263;28;20385;-81
2021/10/26 02:53:57;;;;;;;52.55;26.58;;;10.30;99.90;;;;;;5038799;28;20064;-81
2021/10/26 02:56:23;;;;;;;54.60;28.38;;;10.30;99.90;;;;;;5034693;28;20017;-80
2021/10/26 02:58:48;;;;;;;51.97;26.58;;;10.30;99.90;;;;;;5035146;28;20080;-81
2021/10/26 03:01:15;;;;;;;52.60;25.73;;;10.30;99.90;;;;;;5034900;28;20052;-81
2021/10/26 03:03:41;;;;;;;57.95;28.48;;;10.30;99.90;;;;;;5033952;28;20025;-80
2021/10/26 03:06:06;;;;;;;47.90;24.98;;;10.30;99.90;;;;;;5035150;28;20029;-80
2021/10/26 03:08:32;;;;;;;59.15;27.20;;;10.30;99.90;;;;;;5034742;28;20025;-80
2021/10/26 03:10:58;;;;;;;55.05;25.63;;;10.30;99.90;;;;;;5033897;28;20029;-80
2021/10/26 03:13:26;;;;;;;48.13;25.95;;;10.30;99.90;;;;;;5034389;28;20024;-80
2021/10/26 03:15:52;;;;;;;50.83;25.77;;;10.30;99.90;;;;;;5034633;28;20104;-81
2021/10/26 03:18:18;;;;;;;48.25;24.13;;;10.30;99.90;;;;;;5034125;28;20106;-81
2021/10/26 03:20:47;;;;;;;55.50;24.55;;;10.20;99.90;;;;;;5034566;28;20115;-81
2021/10/26 03:23:12;;;;;;;43.85;24.00;;;10.50;99.90;;;;;;5035128;28;20418;-80
2021/10/26 03:25:38;;;;;;;41.13;22.38;;;10.20;99.90;;;;;;5033684;28;20025;-81
2021/10/26 03:28:04;;;;;;;49.10;24.83;;;10.10;99.90;;;;;;5034321;28;20540;-81
2021/10/26 03:30:29;;;;;;;47.67;24.45;;;10.10;99.90;;;;;;5034236;28;20032;-81
2021/10/26 03:32:55;;;;;;;48.90;23.67;;;10.10;99.90;;;;;;5034297;28;20493;-80
2021/10/26 03:35:20;;;;;;;46.92;22.30;;;10.10;99.90;;;;;;5035100;28;20039;-81
2021/10/26 03:37:46;;;;;;;43.20;23.48;;;10.00;99.90;;;;;;5033713;28;20085;-80
2021/10/26 03:40:12;;;;;;;40.40;21.88;;;10.00;99.90;;;;;;5034301;28;20037;-80
2021/10/26 03:42:38;;;;;;;41.83;23.33;;;10.00;99.90;;;;;;5033522;28;20084;-80
2021/10/26 03:45:05;;;;;;;44.92;21.83;;;10.00;99.90;;;;;;5033102;28;20473;-78
2021/10/26 03:47:31;;;;;;;46.65;21.15;;;10.00;99.90;;;;;;5033689;28;20033;-79
2021/10/26 03:49:56;;;;;;;44.33;22.75;;;10.00;99.90;;;;;;5034005;28;20385;-80
2021/10/26 03:52:22;;;;;;;38.03;20.67;;;9.90;99.90;;;;;;5033751;28;20040;-79
2021/10/26 03:54:49;;;;;;;50.05;21.90;;;10.00;99.90;;;;;;5035142;28;20029;-78
2021/10/26 03:57:15;;;;;;;42.65;22.73;;;9.90;99.90;;;;;;5034532;28;20030;-79
2021/10/26 03:59:40;;;;;;;41.30;22.20;;;9.90;99.90;;;;;;5033419;28;20108;-78
2021/10/26 04:02:19;;;;;;;54.65;24.17;;;11.00;99.90;;;;;;5034508;28;20041;-77
2021/10/26 04:04:45;;;;;;;46.20;22.33;;;10.00;99.90;;;;;;5034450;28;20037;-77
2021/10/26 04:07:10;;;;;;;40.28;21.67;;;10.00;99.90;;;;;;5033895;28;20087;-78
2021/10/26 04:09:52;;;;;;;44.60;20.30;;;10.00;99.90;;;;;;5034449;28;20027;-81
2021/10/26 04:14:44;;;;;;;42.70;21.63;;;9.90;99.90;;;;;;5033116;28;20028;-78
2021/10/26 04:17:09;;;;;;;44.67;21.88;;;9.80;99.90;;;;;;5033620;28;20029;-79
2021/10/26 04:19:35;;;;;;;41.30;20.98;;;9.80;99.90;;;;;;5033355;28;20378;-80
2021/10/26 04:22:01;;;;;;;46.03;20.30;;;9.80;99.90;;;;;;5032855;28;20048;-79
2021/10/26 04:24:27;;;;;;;48.75;22.58;;;9.80;99.90;;;;;;5032974;28;20381;-79
2021/10/26 04:26:52;;;;;;;39.72;18.85;;;9.70;99.90;;;;;;5033811;28;20025;-78
2021/10/26 04:29:18;;;;;;;46.08;20.48;;;9.70;99.90;;;;;;5033640;28;20091;-77
2021/10/26 04:31:44;;;;;;;37.70;19.05;;;9.70;99.90;;;;;;5033382;28;20124;-80
2021/10/26 04:34:10;;;;;;;35.60;19.42;;;9.60;99.90;;;;;;5032278;28;20037;-79
2021/10/26 04:36:36;;;;;;;38.05;18.42;;;9.60;99.90;;;;;;5032753;28;20022;-79
2021/10/26 04:39:02;;;;;;;37.33;17.75;;;9.60;99.90;;;;;;5032744;28;20022;-78
2021/10/26 04:41:27;;;;;;;37.80;18.83;;;9.50;99.90;;;;;;5031914;28;20024;-79
2021/10/26 04:43:53;;;;;;;44.55;18.77;;;9.50;99.90;;;;;;5033082;28;20021;-79
2021/10/26 04:46:19;;;;;;;39.15;19.02;;;9.50;99.90;;;;;;5033073;28;20477;-78
2021/10/26 04:48:44;;;;;;;39.05;20.02;;;9.50;99.90;;;;;;5032360;28;20474;-77
2021/10/26 04:51:10;;;;;;;28.13;17.48;;;9.50;99.90;;;;;;5032808;28;20026;-79
2021/10/26 04:53:36;;;;;;;37.45;17.83;;;9.50;99.90;;;;;;5032538;28;20034;-79
2021/10/26 04:56:05;;;;;;;33.35;15.70;;;9.50;99.90;;;;;;5031909;28;20026;-79
2021/10/26 04:58:30;;;;;;;39.67;17.30;;;9.50;99.90;;;;;;5032765;28;20025;-78
2021/10/26 05:00:56;;;;;;;33.92;17.77;;;9.50;99.90;;;;;;5032962;28;20028;-79
2021/10/26 05:03:21;;;;;;;34.70;17.90;;;9.50;99.90;;;;;;5032086;28;20024;-77
2021/10/26 05:05:47;;;;;;;38.75;17.98;;;9.50;99.90;;;;;;5034553;28;20021;-80
2021/10/26 05:08:12;;;;;;;35.17;16.40;;;9.40;99.90;;;;;;5032165;28;20108;-80
2021/10/26 05:10:38;;;;;;;30.02;16.70;;;9.50;99.90;;;;;;5031856;28;20136;-79
2021/10/26 05:13:04;;;;;;;30.77;16.95;;;9.40;99.90;;;;;;5032534;28;20064;-79
2021/10/26 05:15:30;;;;;;;34.88;16.10;;;9.50;99.90;;;;;;5033108;28;20063;-78
2021/10/26 05:17:57;;;;;;;38.58;17.45;;;9.40;99.90;;;;;;5031783;28;20033;-78
2021/10/26 05:20:23;;;;;;;35.70;17.00;;;9.40;99.90;;;;;;5031913;28;20089;-78
2021/10/26 05:22:52;;;;;;;36.42;17.73;;;9.40;99.90;;;;;;5032262;28;20034;-78
2021/10/26 05:25:19;;;;;;;34.60;17.65;;;9.40;99.90;;;;;;5031649;28;20104;-78
2021/10/26 05:27:45;;;;;;;28.75;16.33;;;9.50;99.90;;;;;;5032392;28;20037;-79
2021/10/26 05:30:11;;;;;;;33.22;16.17;;;9.40;99.90;;;;;;5032616;28;20025;-79
2021/10/26 05:32:38;;;;;;;32.42;15.77;;;9.40;99.90;;;;;;5030960;28;20041;-79
2021/10/26 05:35:04;;;;;;;38.17;15.68;;;9.30;99.90;;;;;;5032886;28;20108;-79
2021/10/26 05:37:30;;;;;;;35.95;15.77;;;9.40;99.90;;;;;;5030736;28;20485;-79
2021/10/26 05:39:55;;;;;;;31.83;16.35;;;9.40;99.90;;;;;;5032149;28;20037;-79
2021/10/26 05:42:21;;;;;;;30.70;15.73;;;9.30;99.90;;;;;;5031963;28;20135;-78
2021/10/26 05:44:46;;;;;;;32.28;16.08;;;9.30;99.90;;;;;;5031363;28;20045;-77
2021/10/26 05:47:12;;;;;;;34.33;16.23;;;9.40;99.90;;;;;;5032486;28;20516;-79
2021/10/26 05:49:38;;;;;;;35.80;16.80;;;9.30;99.90;;;;;;5031920;28;20477;-80
2021/10/26 05:52:04;;;;;;;31.48;16.23;;;9.30;99.90;;;;;;5031578;28;20390;-79
2021/10/26 05:54:30;;;;;;;40.85;16.75;;;9.30;99.90;;;;;;5032274;28;20036;-80
2021/10/26 05:56:56;;;;;;;39.65;18.20;;;9.30;99.90;;;;;;5032118;28;20064;-78
2021/10/26 05:59:21;;;;;;;35.08;16.52;;;9.30;99.90;;;;;;5030889;28;20026;-78
2021/10/26 06:01:47;;;;;;;40.88;17.58;;;9.30;99.90;;;;;;5031977;28;20025;-79
2021/10/26 06:04:12;;;;;;;31.17;16.65;;;9.30;99.90;;;;;;5032485;28;20450;-78
2021/10/26 06:06:38;;;;;;;29.02;15.15;;;9.30;99.90;;;;;;5031006;28;20078;-80
2021/10/26 06:09:04;;;;;;;33.92;16.77;;;9.20;99.90;;;;;;5031704;28;20060;-79
2021/10/26 06:11:30;;;;;;;29.17;14.52;;;9.20;99.90;;;;;;5031204;28;20040;-79
2021/10/26 06:14:03;;;;;;;36.28;16.33;;;9.20;99.90;;;;;;5031065;28;20022;-79
2021/10/26 06:16:32;;;;;;;38.63;16.15;;;9.10;99.90;;;;;;5031302;28;20514;-80
2021/10/26 06:18:57;;;;;;;32.63;15.75;;;9.10;99.90;;;;;;5028226;28;20054;-81
2021/10/26 06:21:23;;;;;;;29.92;17.00;;;9.10;99.90;;;;;;5026915;28;20022;-80
2021/10/26 06:23:49;;;;;;;29.30;14.68;;;9.00;99.90;;;;;;5031914;28;20021;-81
2021/10/26 06:26:14;;;;;;;33.17;15.18;;;9.00;99.90;;;;;;5030513;28;20116;-81
2021/10/26 06:28:47;;;;;;;31.25;16.65;;;9.10;99.90;;;;;;5029996;28;20059;-80
2021/10/26 06:31:12;;;;;;;28.15;14.55;;;9.10;99.90;;;;;;5028165;28;20389;-81
2021/10/26 06:33:38;;;;;;;30.85;15.07;;;9.00;99.90;;;;;;5027739;28;20048;-81
2021/10/26 06:36:04;;;;;;;22.95;13.63;;;9.00;99.90;;;;;;5032671;28;20036;-81
2021/10/26 06:38:30;;;;;;;23.55;13.85;;;9.00;99.90;;;;;;5036617;28;20017;-81
2021/10/26 06:40:55;;;;;;;27.45;15.55;;;9.00;99.90;;;;;;5033063;28;20479;-81
2021/10/26 06:43:21;;;;;;;28.83;14.23;;;9.00;99.90;;;;;;5033953;28;20022;-81
2021/10/26 06:45:47;;;;;;;24.83;13.85;;;9.00;99.90;;;;;;5034846;28;20025;-83
2021/10/26 06:48:17;;;;;;;32.38;16.52;;;8.90;99.90;;;;;;5033313;28;20029;-82
2021/10/26 06:50:46;;;;;;;36.60;17.45;;;8.90;99.90;;;;;;5033988;28;20033;-80
2021/10/26 06:53:12;;;;;;;31.45;14.07;;;8.90;99.90;;;;;;5036242;28;20041;-81
2021/10/26 06:55:37;;;;;;;34.20;15.40;;;8.90;99.90;;;;;;5036285;28;20028;-80
2021/10/26 06:58:03;;;;;;;29.45;14.55;;;8.90;99.90;;;;;;5037674;28;20021;-81
2021/10/26 07:00:29;;;;;;;26.92;14.15;;;8.90;99.90;;;;;;5039051;28;20033;-80
2021/10/26 07:02:56;;;;;;;32.08;14.45;;;8.90;99.90;;;;;;5037169;28;20032;-80
2021/10/26 07:05:24;;;;;;;32.42;15.43;;;9.00;99.90;;;;;;5035553;28;20069;-81
2021/10/26 07:07:50;;;;;;;30.48;15.23;;;9.00;99.90;;;;;;5034521;28;20025;-82
2021/10/26 07:10:17;;;;;;;31.50;15.48;;;9.00;99.90;;;;;;5035394;28;20017;-81
2021/10/26 07:12:43;;;;;;;26.75;15.00;;;9.10;99.90;;;;;;5035132;28;20549;-80
2021/10/26 07:15:10;;;;;;;27.95;14.93;;;9.20;99.90;;;;;;5039076;28;20046;-82
2021/10/26 07:17:38;;;;;;;31.13;14.80;;;9.20;99.90;;;;;;5035685;28;20507;-80
2021/10/26 07:20:05;;;;;;;35.03;16.90;;;9.40;99.90;;;;;;5035265;28;20017;-83
2021/10/26 07:22:30;;;;;;;27.48;15.63;;;9.40;99.90;;;;;;5034902;28;20025;-80
2021/10/26 07:25:04;;;;;;;39.05;16.15;;;9.50;99.90;;;;;;5034983;28;20020;-81
2021/10/26 07:27:29;;;;;;;36.00;16.40;;;9.50;99.90;;;;;;5024773;28;20029;-81
2021/10/26 07:29:55;;;;;;;35.25;17.45;;;9.60;99.90;;;;;;5036252;28;20032;-80
2021/10/26 07:32:21;;;;;;;42.83;17.00;;;9.70;99.90;;;;;;5036969;28;20237;-80
2021/10/26 07:34:47;;;;;;;40.13;18.13;;;9.90;99.90;;;;;;5018727;28;20025;-81
2021/10/26 07:37:14;;;;;;;34.67;17.10;;;9.90;99.90;;;;;;5037576;28;20091;-80
2021/10/26 07:39:46;;;;;;;35.47;16.75;;;10.00;99.90;;;;;;5035854;28;20470;-83
2021/10/26 07:42:14;;;;;;;37.95;18.80;;;10.10;99.90;;;;;;5036249;28;20405;-80
2021/10/26 07:44:39;;;;;;;34.42;17.20;;;10.20;99.90;;;;;;5035181;28;20425;-82
2021/10/26 07:47:05;;;;;;;49.90;19.35;;;10.30;99.90;;;;;;5034936;28;20095;-82
2021/10/26 07:49:32;;;;;;;35.35;17.38;;;10.40;99.90;;;;;;5035547;28;20040;-84
2021/10/26 07:51:59;;;;;;;36.63;17.63;;;10.40;99.90;;;;;;5034766;28;20103;-81
2021/10/26 07:54:25;;;;;;;32.92;16.60;;;10.50;99.90;;;;;;5035461;28;20026;-84
2021/10/26 07:56:52;;;;;;;31.98;16.38;;;10.50;99.90;;;;;;5036831;28;20086;-85
2021/10/26 07:59:18;;;;;;;40.63;17.23;;;10.60;99.90;;;;;;5036905;28;20021;-87
2021/10/26 08:01:45;;;;;;;35.05;16.05;;;10.60;99.90;;;;;;5038278;28;20028;-76
2021/10/26 08:04:11;;;;;;;29.45;15.00;;;10.60;99.90;;;;;;5035542;28;20029;-81
2021/10/26 08:06:46;;;;;;;36.03;16.83;;;10.70;99.90;;;;;;5032302;28;20033;-83
2021/10/26 08:09:14;;;;;;;29.60;15.27;;;10.70;99.90;;;;;;5025299;28;20652;-82
2021/10/26 08:11:40;;;;;;;29.17;15.60;;;10.70;99.90;;;;;;5022667;28;20029;-81
2021/10/26 08:14:06;;;;;;;32.42;15.90;;;10.70;99.90;;;;;;5018003;28;20083;-81
2021/10/26 08:16:32;;;;;;;28.70;15.73;;;10.70;99.90;;;;;;5025484;28;20112;-81
2021/10/26 08:18:59;;;;;;;29.42;16.45;;;11.60;99.90;;;;;;5028673;28;20409;-83
2021/10/26 08:21:24;;;;;;;33.15;17.77;;;10.80;99.90;;;;;;5029954;28;20040;-84
2021/10/26 08:23:50;;;;;;;32.50;15.68;;;10.80;99.90;;;;;;5029151;28;20081;-83
2021/10/26 08:26:40;;;;;;;29.75;16.27;;;10.90;99.90;;;;;;5030041;28;20025;-80
2021/10/26 08:29:16;;;;;;;39.78;16.80;;;10.90;99.90;;;;;;5026498;28;20026;-78
2021/10/26 08:34:43;;;;;;;35.85;17.23;;;11.00;99.90;;;;;;5025724;28;20405;-79
2021/10/26 08:37:18;;;;;;;30.92;17.23;;;11.10;99.90;;;;;;5029188;28;20025;-79
2021/10/26 08:39:44;;;;;;;32.55;16.70;;;11.20;99.90;;;;;;5025380;28;20036;-79
2021/10/26 08:42:18;;;;;;;32.17;16.60;;;11.30;99.90;;;;;;5025976;28;20036;-81
2021/10/26 08:44:44;;;;;;;29.40;14.68;;;11.40;99.90;;;;;;5022079;28;20022;-86
2021/10/26 08:47:11;;;;;;;26.20;15.25;;;11.40;99.90;;;;;;5017951;28;20095;-82
2021/10/26 08:49:38;;;;;;;34.72;16.85;;;11.40;99.90;;;;;;5020250;28;20033;-82
2021/10/26 08:52:07;;;;;;;34.08;16.33;;;11.40;99.90;;;;;;5021699;28;20037;-84
2021/10/26 08:54:33;;;;;;;30.33;16.13;;;11.60;99.90;;;;;;5024070;28;20032;-83
2021/10/26 08:56:59;;;;;;;32.88;17.30;;;11.60;99.90;;;;;;5024662;28;20528;-80
2021/10/26 08:59:25;;;;;;;31.45;16.67;;;11.70;99.90;;;;;;5022732;28;20030;-80
2021/10/26 09:02:00;;;;;;;29.02;16.92;;;11.70;99.90;;;;;;5017353;28;20088;-79
2021/10/26 09:04:36;;;;;;;30.80;17.35;;;11.80;99.90;;;;;;5026474;28;20029;-81
2021/10/26 09:07:07;;;;;;;28.50;17.27;;;11.90;99.90;;;;;;5024106;28;20028;-80
2021/10/26 09:09:37;;;;;;;42.53;19.10;;;12.00;99.90;;;;;;5022195;28;20022;-82
2021/10/26 09:17:55;;;;;;;31.27;18.02;;;12.10;99.90;;;;;;5021790;28;20067;-83
2021/10/26 09:20:24;;;;;;;29.58;18.33;;;12.20;99.90;;;;;;5030240;28;20049;-82
2021/10/26 09:23:03;;;;;;;38.65;18.75;;;12.30;99.90;;;;;;5028695;28;20033;-84
2021/10/26 09:25:39;;;;;;;34.05;18.77;;;12.30;99.90;;;;;;5035000;28;20105;-82
2021/10/26 09:28:19;;;;;;;29.30;18.58;;;12.30;99.90;;;;;;5032930;28;20083;-83
2021/10/26 09:31:06;;;;;;;26.15;17.23;;;12.30;99.90;;;;;;5035979;28;20029;-83
2021/10/26 09:33:37;;;;;;;35.58;18.63;;;12.30;99.90;;;;;;5033290;28;20049;-84
2021/10/26 09:36:32;;;;;;;32.67;17.73;;;12.40;99.90;;;;;;5033624;28;20028;-83
2021/10/26 09:39:04;;;;;;;28.05;17.63;;;12.40;99.90;;;;;;5034375;28;20025;-84
2021/10/26 09:41:57;;;;;;;35.33;17.90;;;12.30;99.90;;;;;;5034313;28;20029;-83
2021/10/26 09:44:25;;;;;;;28.90;17.38;;;12.40;99.90;;;;;;5037600;28;20022;-83
2021/10/26 09:46:55;;;;;;;25.40;15.80;;;12.30;99.90;;;;;;5038238;28;20021;-84
2021/10/26 09:49:25;;;;;;;33.87;16.77;;;12.30;99.90;;;;;;5033745;28;20095;-84
2021/10/26 09:52:11;;;;;;;32.43;16.33;;;12.30;99.90;;;;;;5019224;28;20339;-83
2021/10/26 09:54:37;;;;;;;32.90;16.85;;;12.30;99.90;;;;;;5032367;28;20470;-82
2021/10/26 09:57:08;;;;;;;27.77;16.88;;;12.30;99.90;;;;;;5038807;28;20041;-82
2021/10/26 09:59:36;;;;;;;30.00;16.58;;;12.30;99.90;;;;;;5032942;28;20026;-83
2021/10/26 10:02:01;;;;;;;21.02;16.15;;;12.30;99.90;;;;;;5033054;28;20037;-80
2021/10/26 10:04:29;;;;;;;26.05;16.95;;;12.20;99.90;;;;;;5036182;28;20374;-81
2021/10/26 10:06:55;;;;;;;29.75;18.23;;;12.20;99.90;;;;;;5036594;28;20043;-82
2021/10/26 10:09:21;;;;;;;25.70;16.08;;;12.20;99.90;;;;;;5034636;28;20116;-81
2021/10/26 10:12:06;;;;;;;32.17;16.50;;;12.20;99.90;;;;;;5038232;28;20025;-83
2021/10/26 10:14:40;;;;;;;33.88;16.95;;;12.30;99.90;;;;;;5038574;28;20021;-83
2021/10/26 10:17:07;;;;;;;27.83;17.40;;;12.40;99.90;;;;;;5038448;28;20026;-82
2021/10/26 10:19:34;;;;;;;26.52;17.73;;;12.50;99.90;;;;;;5039160;28;20024;-82
2021/10/26 10:22:04;;;;;;;33.42;17.77;;;12.60;99.90;;;;;;5039031;28;20034;-83
2021/10/26 10:24:32;;;;;;;26.13;16.90;;;12.60;99.90;;;;;;5038112;28;20026;-83
2021/10/26 10:26:58;;;;;;;26.10;17.48;;;12.70;99.90;;;;;;5036538;28;20037;-83
2021/10/26 10:29:24;;;;;;;38.58;18.13;;;12.80;99.90;;;;;;5039071;28;20025;-83
2021/10/26 10:31:50;;;;;;;28.88;17.27;;;12.80;99.90;;;;;;5037157;28;20064;-83
2021/10/26 10:34:20;;;;;;;28.40;17.88;;;13.00;99.90;;;;;;5035124;28;20092;-83
2021/10/26 10:36:48;;;;;;;31.20;18.17;;;13.00;99.90;;;;;;5036565;28;20397;-82
2021/10/26 10:39:14;;;;;;;28.90;17.83;;;13.10;99.90;;;;;;5036597;28;20038;-83
2021/10/26 10:41:42;;;;;;;27.35;17.40;;;13.20;99.90;;;;;;5036755;28;20029;-83
2021/10/26 10:44:20;;;;;;;33.88;18.75;;;13.20;99.90;;;;;;5037282;28;20371;-84
2021/10/26 10:46:51;;;;;;;37.25;17.75;;;13.20;99.90;;;;;;5024908;28;20025;-83
2021/10/26 10:49:20;;;;;;;29.95;18.02;;;13.30;99.90;;;;;;5038901;28;20034;-83
2021/10/26 10:52:08;;;;;;;25.02;15.80;;;13.40;99.90;;;;;;5039107;28;20025;-83
2021/10/26 10:54:43;;;;;;;29.80;15.18;;;13.50;99.90;;;;;;5036113;28;20033;-83
2021/10/26 10:57:26;;;;;;;23.83;14.52;;;14.10;99.90;;;;;;5040448;28;20553;-84
2021/10/26 10:59:57;;;;;;;24.30;14.35;;;13.60;99.90;;;;;;5038754;28;20025;-84
2021/10/26 11:02:33;;;;;;;25.23;12.95;;;13.70;99.90;;;;;;5033454;28;20026;-83
2021/10/26 11:04:59;;;;;;;18.92;11.95;;;13.70;99.90;;;;;;5038546;28;20036;-83
2021/10/26 11:07:45;;;;;;;22.35;12.00;;;13.70;99.90;;;;;;5037236;28;20030;-81
2021/10/26 11:10:14;;;;;;;18.45;9.75;;;13.70;99.90;;;;;;5037010;28;20025;-84
2021/10/26 11:12:42;;;;;;;21.13;10.25;;;13.60;99.90;;;;;;5037382;28;20037;-82
2021/10/26 11:15:10;;;;;;;19.95;11.50;;;13.60;99.90;;;;;;5036149;28;20033;-84
2021/10/26 11:17:36;;;;;;;21.27;9.90;;;13.60;99.90;;;;;;5037889;28;20022;-82
2021/10/26 11:20:26;;;;;;;28.70;11.25;;;13.60;99.90;;;;;;5038136;28;20029;-84
2021/10/26 11:23:02;;;;;;;26.10;9.13;;;13.60;99.90;;;;;;5035756;28;20048;-83
2021/10/26 11:25:27;;;;;;;19.17;8.77;;;13.70;99.90;;;;;;5036190;28;20440;-84
2021/10/26 11:27:54;;;;;;;18.02;8.63;;;13.80;99.90;;;;;;5035571;28;20013;-84
2021/10/26 11:30:29;;;;;;;15.23;8.23;;;13.80;99.90;;;;;;5035008;28;20025;-84
2021/10/26 11:33:12;;;;;;;15.32;8.48;;;13.80;99.90;;;;;;5035955;28;20084;-83
2021/10/26 11:35:55;;;;;;;20.83;8.43;;;13.80;99.90;;;;;;5035759;28;20017;-85
2021/10/26 11:38:34;;;;;;;19.88;8.38;;;13.80;99.90;;;;;;5036168;28;20029;-84
2021/10/26 11:41:06;;;;;;;12.48;7.53;;;13.80;99.90;;;;;;5038893;28;20018;-84
2021/10/26 11:43:58;;;;;;;13.98;7.72;;;13.70;99.90;;;;;;5038213;28;20493;-83
2021/10/26 11:46:24;;;;;;;13.18;7.88;;;13.70;99.90;;;;;;5036629;28;20428;-83
2021/10/26 11:48:57;;;;;;;21.50;8.82;;;13.80;99.90;;;;;;5037949;28;20531;-83
2021/10/26 11:51:43;;;;;;;16.17;7.70;;;13.90;99.90;;;;;;5036161;28;20030;-82
2021/10/26 11:54:24;;;;;;;13.15;7.82;;;13.90;99.90;;;;;;5035505;28;20035;-80
2021/10/26 11:57:02;;;;;;;18.17;7.60;;;14.00;99.90;;;;;;5035249;28;20517;-80
2021/10/26 11:59:29;;;;;;;15.02;7.80;;;14.10;99.90;;;;;;5024112;28;20040;-83
2021/10/26 12:01:56;;;;;;;18.35;7.70;;;14.20;99.90;;;;;;5035556;28;20029;-86
2021/10/26 12:04:24;;;;;;;13.10;6.97;;;14.20;99.90;;;;;;5035575;28;20482;-82
2021/10/26 12:06:53;;;;;;;15.15;6.72;;;14.30;99.90;;;;;;5040006;28;20041;-81
2021/10/26 12:09:22;;;;;;;8.68;6.10;;;14.30;99.90;;;;;;5035112;28;20029;-82
2021/10/26 12:11:50;;;;;;;13.02;6.13;;;14.30;99.90;;;;;;5035478;28;20021;-81
2021/10/26 12:14:19;;;;;;;16.25;5.95;;;14.30;99.90;;;;;;5036635;28;20029;-81
2021/10/26 12:17:10;;;;;;;10.18;5.53;;;14.40;99.90;;;;;;5039528;28;20390;-81
2021/10/26 12:19:41;;;;;;;10.05;6.20;;;14.30;99.90;;;;;;5034222;28;20040;-81
2021/10/26 12:22:17;;;;;;;11.82;5.47;;;14.20;99.90;;;;;;5035244;28;20025;-81
2021/10/26 12:24:50;;;;;;;9.57;6.03;;;14.20;99.90;;;;;;5034610;28;20469;-81
2021/10/26 12:27:28;;;;;;;14.75;6.18;;;14.30;99.90;;;;;;5033831;28;20056;-81
2021/10/26 12:29:54;;;;;;;13.15;6.40;;;14.30;99.90;;;;;;5034126;28;20022;-80
2021/10/26 12:32:24;;;;;;;11.50;6.43;;;14.20;99.90;;;;;;5027279;28;20052;-80
2021/10/26 12:34:50;;;;;;;8.98;5.35;;;14.20;99.90;;;;;;5031107;28;20079;-80
2021/10/26 12:37:33;;;;;;;16.48;7.75;;;14.20;99.90;;;;;;5020304;28;20481;-80
2021/10/26 12:40:01;;;;;;;12.10;6.68;;;14.30;99.90;;;;;;5025843;28;20482;-79
2021/10/26 12:42:30;;;;;;;12.68;6.38;;;14.30;99.90;;;;;;5020206;28;20022;-79
2021/10/26 12:44:56;;;;;;;8.55;5.43;;;14.30;99.90;;;;;;5022309;28;20026;-79
2021/10/26 12:47:21;;;;;;;13.60;5.93;;;14.20;99.90;;;;;;5019302;28;20030;-78